Time;durP1;ratioP1;P1;durP2;ratioP2;P2;SDS_P1;SDS_P2;PMS_P1;PMS_P2;Temp;Humidity;BMP_temperature;BMP_pressure;BME280_temperature;BME280_humidity;BME280_pressure;Samples;Min_cycle;Max_cycle;Signal;HPM_P1;HPM_P2
2021/10/25 00:00:28;;;;;;;5.80;4.05;;;4.10;67.20;;;3.01;52.57;95706.81;4996360;28;20228;-81
2021/10/25 00:02:58;;;;;;;6.28;4.00;;;4.10;67.10;;;2.92;52.84;95698.97;4995774;28;20252;-81
2021/10/25 00:05:26;;;;;;;7.68;4.00;;;4.00;67.10;;;2.95;52.41;95696.97;5028768;28;20193;-81
2021/10/25 00:07:55;;;;;;;6.28;3.72;;;4.00;67.10;;;2.92;52.84;95696.38;5011523;28;20239;-81
2021/10/25 00:10:22;;;;;;;9.75;4.30;;;4.00;67.20;;;2.89;52.67;95692.28;5012132;28;20300;-80
2021/10/25 00:12:49;;;;;;;9.88;4.65;;;4.00;67.20;;;2.83;53.01;95687.59;5012352;28;20316;-81
2021/10/25 00:15:16;;;;;;;8.52;4.07;;;3.90;67.30;;;2.81;52.87;95690.31;5011757;28;20237;-81
2021/10/25 00:17:44;;;;;;;8.43;3.95;;;3.90;67.30;;;2.83;53.24;95687.59;4992559;28;20244;-80
2021/10/25 00:20:13;;;;;;;6.00;3.70;;;3.90;67.40;;;2.80;53.11;95686.09;4976770;28;20683;-81
2021/10/25 00:22:41;;;;;;;7.10;4.45;;;3.90;67.60;;;2.80;53.08;95686.09;4992714;28;20288;-80
2021/10/25 00:25:08;;;;;;;4.95;4.10;;;3.90;67.60;;;2.77;53.33;95688.09;4995098;28;20286;-81
2021/10/25 00:27:36;;;;;;;4.95;3.90;;;3.80;67.50;;;2.73;53.01;95679.75;5010940;28;20217;-81
2021/10/25 00:30:05;;;;;;;7.75;4.80;;;3.80;67.50;;;2.75;53.19;95685.63;5011865;28;20247;-81
2021/10/25 00:32:33;;;;;;;7.00;3.90;;;3.80;67.70;;;2.78;53.36;95676.78;5011762;28;20217;-81
2021/10/25 00:35:00;;;;;;;7.35;3.80;;;3.80;67.70;;;2.73;53.30;95664.22;4995130;28;20204;-82
2021/10/25 00:37:27;;;;;;;7.22;4.22;;;3.80;67.70;;;2.77;53.49;95678.56;5012115;28;20315;-81
2021/10/25 00:39:54;;;;;;;6.70;4.43;;;3.80;67.80;;;2.72;53.62;95670.34;5011796;28;20194;-80
2021/10/25 00:42:22;;;;;;;10.90;4.45;;;3.80;67.90;;;2.78;53.53;95675.00;5011603;28;20245;-82
2021/10/25 00:44:49;;;;;;;7.57;4.03;;;3.80;68.00;;;2.79;53.79;95670.66;5011181;28;20599;-80
2021/10/25 00:47:17;;;;;;;9.35;4.53;;;3.80;68.00;;;2.78;53.67;95661.25;4975708;28;20225;-81
2021/10/25 00:49:45;;;;;;;6.05;4.75;;;3.80;68.10;;;2.81;53.58;95666.19;4992082;28;20232;-81
2021/10/25 00:52:14;;;;;;;9.50;5.38;;;3.80;68.00;;;2.81;53.78;95661.00;5008168;28;20218;-80
2021/10/25 00:54:42;;;;;;;9.20;5.15;;;3.80;68.20;;;2.82;53.81;95660.03;4997480;28;20198;-82
2021/10/25 00:57:09;;;;;;;9.25;4.85;;;3.80;68.10;;;2.78;53.74;95656.06;5010340;28;20275;-81
2021/10/25 00:59:37;;;;;;;7.88;5.20;;;3.80;68.10;;;2.80;53.73;95659.38;5011463;28;20193;-82
2021/10/25 01:02:04;;;;;;;9.95;5.45;;;3.80;68.00;;;2.78;53.80;95650.88;5028001;28;20225;-81
2021/10/25 01:04:32;;;;;;;11.95;6.35;;;3.80;68.10;;;2.78;53.55;95656.06;4995553;28;20213;-82
2021/10/25 01:07:00;;;;;;;13.88;5.68;;;3.70;68.00;;;2.69;53.81;95647.28;4980996;28;20268;-81
2021/10/25 01:09:29;;;;;;;8.90;5.55;;;3.80;68.10;;;2.69;53.74;95640.31;4991905;28;20245;-82
2021/10/25 01:11:57;;;;;;;10.07;5.75;;;3.70;68.10;;;2.72;53.81;95652.19;4975645;28;20221;-80
2021/10/25 01:14:24;;;;;;;13.32;6.10;;;3.70;68.10;;;2.70;54.09;95646.34;4992175;28;20202;-81
2021/10/25 01:16:52;;;;;;;11.40;5.78;;;3.70;68.10;;;2.67;53.95;95644.81;5010690;28;20697;-80
2021/10/25 01:19:20;;;;;;;11.52;5.50;;;3.70;69.10;;;2.70;53.89;95651.53;5027743;28;20198;-81
2021/10/25 01:21:47;;;;;;;9.80;5.20;;;3.70;68.20;;;2.66;54.01;95643.19;5011401;28;20300;-81
2021/10/25 01:24:14;;;;;;;9.23;5.07;;;3.70;68.20;;;2.66;53.79;95653.53;5011258;28;20678;-81
2021/10/25 01:26:41;;;;;;;7.65;5.07;;;3.70;68.30;;;2.65;53.94;95656.22;5012478;28;20759;-81
2021/10/25 01:29:09;;;;;;;9.32;5.05;;;3.70;68.20;;;2.61;53.98;95647.06;5011195;28;20699;-81
2021/10/25 01:31:36;;;;;;;8.30;4.80;;;3.70;68.30;;;2.61;54.05;95658.25;4995453;28;20214;-81
2021/10/25 01:34:04;;;;;;;7.40;4.53;;;3.60;68.20;;;2.60;54.08;95651.44;5011332;28;20301;-82
2021/10/25 01:36:35;;;;;;;7.05;4.65;;;3.60;68.30;;;2.61;54.12;95652.25;4994008;28;20283;-80
2021/10/25 01:39:02;;;;;;;7.10;4.65;;;3.60;68.40;;;2.56;54.14;95644.84;4991288;28;20747;-81
2021/10/25 01:41:30;;;;;;;10.65;4.95;;;3.60;68.40;;;2.59;54.13;95646.38;4999976;28;20228;-81
2021/10/25 01:43:59;;;;;;;8.55;5.20;;;3.60;68.40;;;2.54;54.33;95637.22;5010709;28;20197;-81
2021/10/25 01:46:27;;;;;;;7.30;4.55;;;3.60;68.50;;;2.54;54.43;95639.00;4995142;28;20224;-81
2021/10/25 01:48:54;;;;;;;8.65;4.40;;;3.60;68.50;;;2.57;54.26;95638.72;5014103;28;20300;-81
2021/10/25 01:51:22;;;;;;;9.30;4.32;;;3.50;68.50;;;2.57;54.21;95641.31;5014716;28;20217;-82
2021/10/25 01:53:50;;;;;;;6.30;4.30;;;3.60;68.50;;;2.55;54.34;95641.47;4998637;28;20201;-81
2021/10/25 01:56:20;;;;;;;6.68;4.00;;;3.50;68.50;;;2.54;54.32;95637.22;4979620;28;20253;-81
2021/10/25 01:58:48;;;;;;;7.90;4.47;;;3.50;68.60;;;2.53;54.32;95638.16;4979030;28;20225;-80
2021/10/25 02:01:17;;;;;;;6.50;4.43;;;3.50;68.60;;;2.52;54.55;95643.47;4982528;28;20299;-80
2021/10/25 02:03:47;;;;;;;6.97;4.50;;;3.50;68.60;;;2.50;54.58;95633.25;5002818;28;20209;-81
2021/10/25 02:06:21;;;;;;;7.47;4.40;;;3.50;68.60;;;2.48;54.67;95626.53;5014766;28;20229;-81
2021/10/25 02:08:48;;;;;;;6.93;4.30;;;3.50;69.60;;;2.43;54.28;95618.31;5014368;28;20245;-81
2021/10/25 02:11:18;;;;;;;8.45;4.50;;;3.50;68.70;;;2.47;54.41;95624.91;4986892;28;20209;-81
2021/10/25 02:13:56;;;;;;;7.45;4.40;;;3.50;68.80;;;2.46;54.60;95633.59;5014694;28;20197;-81
2021/10/25 02:16:24;;;;;;;8.88;4.65;;;3.50;68.80;;;2.45;54.80;95617.22;5014396;28;20233;-81
2021/10/25 02:18:52;;;;;;;5.45;4.20;;;3.50;68.80;;;2.44;54.69;95613.03;5014247;28;20209;-82
2021/10/25 02:21:25;;;;;;;6.70;4.68;;;3.50;68.90;;;2.46;54.41;95612.91;5013644;28;20223;-81
2021/10/25 02:23:52;;;;;;;6.45;4.50;;;3.50;68.90;;;2.45;54.91;95619.81;4997797;28;20204;-82
2021/10/25 02:26:19;;;;;;;6.30;4.18;;;3.40;68.80;;;2.44;54.83;95607.84;4998034;28;20217;-80
2021/10/25 02:28:47;;;;;;;7.53;4.70;;;3.40;68.90;;;2.42;54.80;95609.72;5013542;28;20225;-81
2021/10/25 02:31:14;;;;;;;7.85;4.78;;;3.50;68.90;;;2.39;54.69;95610.81;4998056;28;20263;-81
2021/10/25 02:33:42;;;;;;;6.22;4.20;;;3.40;68.90;;;2.42;54.93;95607.16;4997901;28;20304;-82
2021/10/25 02:36:10;;;;;;;6.00;4.30;;;3.40;68.90;;;2.42;54.63;95604.56;4998097;28;20217;-81
2021/10/25 02:38:40;;;;;;;6.55;4.65;;;3.40;69.00;;;2.42;54.69;95611.47;5015226;28;20190;-81
2021/10/25 02:41:11;;;;;;;6.35;4.60;;;3.50;69.20;;;2.41;54.89;95610.66;5009945;28;20232;-80
2021/10/25 02:43:39;;;;;;;10.00;4.22;;;3.40;69.20;;;2.40;55.17;95611.63;4994245;28;20202;-81
2021/10/25 02:46:07;;;;;;;6.70;4.88;;;3.40;69.10;;;2.39;55.03;95607.38;5001623;28;20218;-81
2021/10/25 02:48:42;;;;;;;5.78;4.10;;;3.40;69.20;;;2.40;55.13;95609.03;4998166;28;20221;-80
2021/10/25 02:51:12;;;;;;;7.45;4.22;;;3.40;69.20;;;2.40;55.09;95609.03;5013575;28;20221;-80
2021/10/25 02:53:40;;;;;;;5.72;4.00;;;3.40;69.20;;;2.40;55.16;95606.44;5013078;28;20189;-81
2021/10/25 02:56:08;;;;;;;6.88;4.28;;;3.40;69.20;;;2.39;55.13;95613.38;4995580;28;20311;-80
2021/10/25 02:58:37;;;;;;;5.88;4.70;;;3.40;69.30;;;2.38;54.93;95600.56;4987525;28;20256;-80
2021/10/25 03:01:05;;;;;;;7.07;4.38;;;3.40;69.20;;;2.38;55.30;95603.97;5011469;28;20212;-80
2021/10/25 03:03:32;;;;;;;8.18;4.80;;;3.40;69.30;;;2.36;55.43;95602.47;5008133;28;20198;-81
2021/10/25 03:06:01;;;;;;;7.82;4.53;;;3.40;69.30;;;2.39;55.20;95604.78;4991819;28;20217;-80
2021/10/25 03:08:29;;;;;;;10.32;4.78;;;3.40;69.30;;;2.38;55.56;95600.56;4993728;28;20548;-80
2021/10/25 03:10:58;;;;;;;7.40;4.07;;;3.40;69.40;;;2.39;55.45;95603.03;5007889;28;20205;-80
2021/10/25 03:13:25;;;;;;;5.85;4.38;;;3.40;69.40;;;2.39;55.59;95600.44;4994803;28;20259;-81
2021/10/25 03:15:56;;;;;;;6.07;4.45;;;3.30;69.40;;;2.37;55.19;95599.75;5008008;28;20727;-81
2021/10/25 03:18:24;;;;;;;6.50;4.35;;;3.40;69.40;;;2.37;55.50;95598.94;5010918;28;20201;-81
2021/10/25 03:20:51;;;;;;;7.70;4.80;;;3.40;69.50;;;2.35;55.25;95599.03;5003074;28;20664;-80
2021/10/25 03:23:19;;;;;;;5.90;4.60;;;3.30;69.40;;;2.37;55.00;95604.09;4994668;28;20189;-81
2021/10/25 03:25:46;;;;;;;6.75;4.25;;;3.30;69.40;;;2.34;55.29;95599.16;5009871;28;20201;-81
2021/10/25 03:28:14;;;;;;;8.55;4.93;;;3.30;69.40;;;2.33;55.49;95605.28;5003948;28;20194;-81
2021/10/25 03:30:42;;;;;;;9.90;4.50;;;3.30;69.50;;;2.32;55.50;95606.22;5018257;28;20217;-80
2021/10/25 03:33:09;;;;;;;8.25;4.50;;;3.30;69.50;;;2.31;55.52;95608.00;5009933;28;20198;-81
2021/10/25 03:35:47;;;;;;;9.32;4.50;;;3.30;69.50;;;2.30;55.15;95610.72;5003179;28;20288;-80
2021/10/25 03:38:17;;;;;;;8.27;4.28;;;3.30;69.50;;;2.28;55.59;95603.06;4986383;28;20296;-81
2021/10/25 03:40:50;;;;;;;7.45;4.68;;;3.30;69.60;;;2.26;55.70;95599.78;4996433;28;20197;-80
2021/10/25 03:43:20;;;;;;;5.22;4.13;;;3.30;69.60;;;2.26;55.40;95597.19;5011651;28;20221;-81
2021/10/25 03:45:57;;;;;;;8.25;4.88;;;3.30;69.70;;;2.24;55.80;95601.69;4990894;28;20210;-81
2021/10/25 03:48:34;;;;;;;8.23;4.50;;;3.30;69.70;;;2.24;55.46;95594.72;4986038;28;20570;-81
2021/10/25 03:51:01;;;;;;;8.15;4.63;;;3.30;69.70;;;2.24;55.24;95594.72;4992520;28;20586;-82
2021/10/25 03:53:46;;;;;;;7.40;4.43;;;3.30;69.70;;;2.22;55.53;95596.63;4996217;28;20229;-80
2021/10/25 03:56:30;;;;;;;7.63;4.60;;;3.20;69.60;;;2.20;55.64;95590.75;5010989;28;20772;-80
2021/10/25 04:04:35;;;;;;;6.35;4.30;;;3.20;69.70;;;2.22;55.65;95590.63;4994592;28;20205;-81
2021/10/25 04:29:54;;;;;;;11.35;6.00;;;3.10;69.80;;;2.15;55.90;95579.09;4976968;28;20502;-81
2021/10/25 04:32:21;;;;;;;11.40;5.65;;;3.20;69.90;;;2.09;55.94;95562.31;4974919;28;20210;-81
2021/10/25 04:34:48;;;;;;;7.88;5.07;;;3.10;69.80;;;2.12;55.64;95569.81;4975983;28;20213;-81
2021/10/25 04:37:35;;;;;;;6.65;4.63;;;3.10;69.80;;;2.10;55.52;95571.75;5010362;28;20263;-80
2021/10/25 04:40:09;;;;;;;9.93;4.38;;;3.10;69.90;;;2.08;55.78;95565.84;5011838;28;20580;-81
2021/10/25 04:42:38;;;;;;;7.22;4.75;;;3.10;70.00;;;2.02;56.03;95558.59;5011816;28;20255;-81
2021/10/25 04:45:06;;;;;;;7.47;4.60;;;3.10;70.00;;;2.08;55.99;95574.44;4981869;28;20195;-79
2021/10/25 04:47:36;;;;;;;6.95;5.07;;;3.10;70.00;;;2.06;56.05;95578.94;4995392;28;20668;-80
2021/10/25 04:50:15;;;;;;;6.72;4.63;;;3.10;70.10;;;2.04;55.74;95578.22;5006197;28;20652;-81
2021/10/25 04:53:01;;;;;;;6.68;5.05;;;3.10;70.10;;;2.03;56.09;95573.16;5004745;28;20224;-82
2021/10/25 04:55:29;;;;;;;9.40;4.95;;;3.10;70.10;;;2.01;56.30;95569.88;5009797;28;20289;-81
2021/10/25 04:57:56;;;;;;;9.48;5.20;;;3.00;70.00;;;2.02;56.34;95571.53;4993859;28;20213;-81
2021/10/25 05:00:24;;;;;;;8.88;5.68;;;3.00;70.10;;;2.00;55.85;95570.81;5009994;28;20212;-82
2021/10/25 05:02:54;;;;;;;29.98;12.15;;;3.10;70.10;;;1.97;55.94;95571.88;4988672;28;20307;-81
2021/10/25 05:05:22;;;;;;;86.38;39.08;;;3.00;70.10;;;1.92;56.29;95566.25;5007659;28;20308;-81
2021/10/25 05:07:49;;;;;;;41.53;23.42;;;3.00;71.00;;;1.91;56.27;95568.00;4991014;28;20210;-81
2021/10/25 05:10:17;;;;;;;27.30;16.92;;;3.00;70.10;;;1.93;56.05;95575.66;5011651;28;20236;-82
2021/10/25 05:12:44;;;;;;;18.77;11.45;;;2.90;70.20;;;1.94;56.38;95569.53;5011478;28;20741;-81
2021/10/25 05:15:12;;;;;;;11.98;8.50;;;2.90;70.10;;;1.90;56.14;95568.97;5011157;28;20690;-82
2021/10/25 05:17:39;;;;;;;9.38;6.97;;;2.90;70.10;;;1.91;56.44;95572.38;5011603;28;20236;-81
2021/10/25 05:20:08;;;;;;;8.90;6.05;;;2.90;70.20;;;1.89;55.87;95569.06;4995193;28;20202;-81
2021/10/25 05:22:39;;;;;;;9.43;5.10;;;2.90;70.20;;;1.87;56.55;95571.78;5015756;28;20320;-81
2021/10/25 05:25:08;;;;;;;10.45;4.95;;;2.90;70.20;;;1.82;55.98;95562.75;5014966;28;20719;-82
2021/10/25 05:27:35;;;;;;;8.27;5.45;;;2.90;70.30;;;1.84;56.14;95569.44;4999029;28;20280;-81
2021/10/25 05:30:04;;;;;;;9.68;7.15;;;2.90;70.30;;;1.84;56.41;95563.47;4999198;28;20224;-82
2021/10/25 05:32:32;;;;;;;18.20;11.30;;;2.90;70.50;;;1.84;56.34;95566.84;5015159;28;20280;-82
2021/10/25 05:35:02;;;;;;;18.38;9.80;;;2.80;70.30;;;1.78;56.24;95554.41;5001153;28;20240;-82
2021/10/25 05:37:30;;;;;;;11.10;7.32;;;2.90;70.50;;;1.83;56.39;95570.41;4996091;28;20213;-81
2021/10/25 05:39:57;;;;;;;13.70;6.82;;;2.80;70.40;;;1.83;56.44;95561.81;4995708;28;20201;-81
2021/10/25 05:42:34;;;;;;;11.45;6.28;;;2.90;70.60;;;1.84;56.47;95563.47;4996937;28;20229;-80
2021/10/25 05:45:04;;;;;;;8.77;6.57;;;2.90;70.90;;;1.83;56.49;95566.97;5006221;28;20212;-81
2021/10/25 05:47:32;;;;;;;7.55;6.38;;;2.80;70.80;;;1.87;56.66;95579.56;5011684;28;20225;-81
2021/10/25 05:50:00;;;;;;;10.82;7.97;;;2.80;70.80;;;1.87;56.50;95574.38;4994751;28;20224;-81
2021/10/25 05:52:27;;;;;;;16.35;13.23;;;2.90;70.80;;;1.90;56.57;95581.91;5012621;28;20209;-82
2021/10/25 05:54:54;;;;;;;14.40;9.45;;;2.90;70.90;;;1.92;56.44;95590.34;5013381;28;20201;-81
2021/10/25 05:57:23;;;;;;;11.52;8.15;;;2.90;70.90;;;1.95;56.57;95585.88;5012337;28;20217;-81
2021/10/25 05:59:50;;;;;;;9.55;6.60;;;2.80;70.80;;;1.97;56.53;95587.41;4997504;28;20208;-81
2021/10/25 06:04:59;;;;;;;6.47;5.32;;;2.90;70.90;;;2.03;56.46;95583.53;5013925;28;20707;-81
2021/10/25 06:07:28;;;;;;;9.52;6.68;;;2.90;70.90;;;2.04;56.54;95585.16;4994257;28;20225;-81
2021/10/25 06:09:56;;;;;;;9.90;6.40;;;2.90;70.90;;;2.08;56.89;95589.13;4978425;28;20233;-81
2021/10/25 06:12:38;;;;;;;9.98;6.35;;;3.00;71.00;;;2.17;56.59;95590.16;4995086;28;20222;-81
2021/10/25 06:15:18;;;;;;;7.95;5.53;;;3.00;71.00;;;2.21;56.71;95587.22;4981242;28;20201;-81
2021/10/25 06:17:54;;;;;;;8.25;5.85;;;3.00;70.90;;;2.30;56.75;95595.19;5011962;28;20218;-79
2021/10/25 06:20:29;;;;;;;10.32;6.57;;;3.00;71.00;;;2.35;56.68;95600.81;5003450;28;20207;-79
2021/10/25 06:22:58;;;;;;;10.18;6.28;;;3.10;71.00;;;2.42;56.67;95595.94;4995038;28;20237;-79
2021/10/25 06:25:28;;;;;;;6.60;5.68;;;3.10;71.00;;;2.47;56.82;95599.00;4994786;28;20202;-78
2021/10/25 06:28:08;;;;;;;8.00;5.82;;;3.20;71.10;;;2.55;56.89;95605.19;4979806;28;20210;-79
2021/10/25 06:30:38;;;;;;;8.05;5.38;;;3.20;71.10;;;2.63;56.99;95603.75;4993759;28;20226;-79
2021/10/25 06:33:07;;;;;;;7.45;5.10;;;3.30;71.10;;;2.69;56.98;95596.28;5009981;28;20682;-79
2021/10/25 06:36:05;;;;;;;8.02;5.28;;;3.30;71.20;;;2.75;56.93;95599.31;5006998;28;20229;-80
2021/10/25 06:39:10;;;;;;;8.05;4.95;;;3.40;71.30;;;2.83;56.65;95599.50;5002500;28;20202;-79
2021/10/25 06:41:46;;;;;;;9.18;5.47;;;3.50;71.30;;;2.91;56.82;95604.88;4998994;28;20683;-79
2021/10/25 06:44:21;;;;;;;8.57;5.10;;;3.50;71.40;;;2.99;57.05;95602.50;4997096;28;20585;-79
2021/10/25 06:46:48;;;;;;;7.82;5.45;;;3.60;71.40;;;3.08;57.29;95600.09;4995254;28;20224;-79
2021/10/25 06:49:20;;;;;;;7.28;5.40;;;3.70;71.50;;;3.14;56.91;95607.34;4996636;28;20212;-80
2021/10/25 06:51:48;;;;;;;7.90;5.43;;;3.70;71.40;;;3.20;56.91;95599.88;5013405;28;20225;-79
2021/10/25 06:54:18;;;;;;;8.93;5.18;;;3.80;71.60;;;3.31;56.91;95614.50;4987206;28;20222;-79
2021/10/25 06:56:45;;;;;;;7.65;5.13;;;3.90;71.60;;;3.39;56.86;95619.03;5011674;28;20503;-79
2021/10/25 06:59:14;;;;;;;8.52;5.40;;;3.90;71.70;;;3.45;56.71;95604.75;5008904;28;20194;-80
2021/10/25 07:01:42;;;;;;;5.75;4.93;;;4.00;71.70;;;3.54;56.88;95609.16;5008980;28;20225;-79
2021/10/25 07:04:10;;;;;;;7.72;5.18;;;4.00;71.70;;;3.61;56.74;95615.44;5011940;28;20197;-79
2021/10/25 07:06:38;;;;;;;8.40;4.90;;;4.10;71.80;;;3.68;56.94;95613.16;4996873;28;20241;-80
2021/10/25 07:09:07;;;;;;;11.20;7.75;;;4.20;71.80;;;3.74;56.88;95610.03;4997313;28;20197;-80
2021/10/25 07:11:35;;;;;;;11.57;7.57;;;4.20;71.80;;;3.83;57.02;95608.41;5013255;28;20822;-80
2021/10/25 07:14:06;;;;;;;16.23;9.20;;;4.30;71.90;;;3.91;56.89;95608.59;5013141;28;20644;-80
2021/10/25 07:16:46;;;;;;;23.00;12.68;;;4.40;71.90;;;3.99;57.13;95607.91;5010146;28;20296;-80
2021/10/25 07:19:40;;;;;;;17.67;11.00;;;4.50;72.00;;;4.06;57.00;95611.59;5010001;28;20218;-80
2021/10/25 07:22:59;;;;;;;13.00;9.00;;;4.60;72.10;;;4.10;57.04;95610.41;5009159;28;20222;-80
2021/10/25 08:10:14;;;;;;;21.55;11.75;;;6.20;72.70;;;6.07;56.83;95606.44;5011678;28;20291;-78
2021/10/25 08:12:52;;;;;;;13.45;9.60;;;6.30;72.70;;;6.24;57.19;95602.19;4979876;28;20251;-78
2021/10/25 08:15:27;;;;;;;10.32;6.90;;;6.40;72.80;;;6.38;56.94;95606.09;5011972;28;20196;-78
2021/10/25 08:17:59;;;;;;;13.70;9.35;;;6.50;72.60;;;6.53;56.79;95602.94;4995978;28;20229;-78
2021/10/25 08:20:26;;;;;;;8.90;6.60;;;6.70;72.70;;;6.65;57.05;95598.34;5008979;28;20621;-79
2021/10/25 08:22:53;;;;;;;12.43;8.85;;;6.80;72.70;;;6.80;56.84;95602.06;5001735;28;20217;-79
2021/10/25 08:25:29;;;;;;;8.35;6.43;;;6.90;72.70;;;6.95;56.60;95599.72;4993268;28;20204;-79
2021/10/25 08:28:01;;;;;;;7.78;5.57;;;7.10;72.70;;;7.10;56.90;95599.97;4985733;28;20230;-79
2021/10/25 08:30:29;;;;;;;9.73;5.47;;;7.10;72.60;;;7.24;56.82;95593.38;5003293;28;20210;-79
2021/10/25 08:41:23;;;;;;;15.07;5.38;;;7.70;72.50;;;7.80;56.27;95596.44;4996851;28;20688;-78
2021/10/25 08:43:52;;;;;;;30.75;8.05;;;7.90;72.50;;;7.94;55.85;95600.22;5011469;28;20284;-80
2021/10/25 08:46:21;;;;;;;33.03;6.97;;;7.90;72.30;;;8.09;56.56;95590.00;5008318;28;20350;-79
2021/10/25 08:48:54;;;;;;;24.55;6.63;;;8.10;72.50;;;8.24;55.83;95592.81;5002603;28;20634;-80
2021/10/25 08:51:23;;;;;;;22.45;18.77;;;8.20;72.40;;;8.41;55.91;95591.03;4984334;28;20226;-80
2021/10/25 08:53:52;;;;;;;20.40;11.20;;;8.40;72.40;;;8.57;55.51;95592.88;5007366;28;20277;-79
2021/10/25 08:56:19;;;;;;;19.75;8.48;;;8.50;72.20;;;8.74;55.63;95590.25;5007892;28;20206;-79
2021/10/25 08:59:08;;;;;;;10.77;6.63;;;8.70;72.30;;;8.93;55.75;95596.97;4995918;28;20212;-79
2021/10/25 09:01:38;;;;;;;11.27;7.45;;;8.80;72.10;;;9.09;55.32;95589.13;4990115;28;20617;-78
2021/10/25 09:04:16;;;;;;;11.40;6.30;;;8.90;72.00;;;9.26;55.36;95589.91;4991235;28;20209;-80
2021/10/25 09:07:28;;;;;;;9.02;5.95;;;9.10;71.90;;;9.44;55.08;95581.84;5129333;27;20631;-81
2021/10/25 09:09:56;;;;;;;6.78;5.13;;;9.30;72.10;;;9.59;54.71;95583.75;5107869;28;20686;-81
2021/10/25 09:12:33;;;;;;;44.88;10.13;;;9.40;71.70;;;9.70;54.56;95580.75;5110502;28;20220;-84
2021/10/25 09:15:01;;;;;;;8.07;5.53;;;9.50;71.50;;;9.78;54.30;95575.50;5113980;27;20280;-85
2021/10/25 09:17:42;;;;;;;6.22;4.93;;;9.70;71.10;;;9.85;54.17;95577.44;5085565;28;20197;-86
2021/10/25 09:20:29;;;;;;;5.03;4.05;;;9.90;71.00;;;9.92;54.02;95575.78;5117273;28;20401;-84
2021/10/25 09:23:11;;;;;;;7.70;4.57;;;9.90;70.90;;;9.95;54.10;95570.19;5099703;28;20275;-83
2021/10/25 09:25:41;;;;;;;8.02;4.70;;;10.00;69.10;;;10.05;53.79;95567.38;5086372;28;20630;-86
2021/10/25 09:28:20;;;;;;;8.60;4.43;;;10.10;69.30;;;10.09;53.69;95566.84;5118063;28;20198;-86
2021/10/25 09:30:52;;;;;;;8.27;4.82;;;10.10;69.00;;;10.22;53.83;95573.34;5085096;28;20189;-83
2021/10/25 09:33:24;;;;;;;6.72;4.53;;;10.30;69.20;;;10.28;53.54;95571.81;5082248;28;20231;-84
2021/10/25 09:36:04;;;;;;;15.13;6.10;;;10.30;69.00;;;10.34;53.20;95569.31;5102577;28;20194;-84
2021/10/25 09:50:11;;;;;;;42.55;9.18;;;10.60;68.60;;;10.62;53.08;95584.56;5092181;28;20233;-84
2021/10/25 09:52:42;;;;;;;22.48;7.97;;;10.70;68.60;;;10.70;52.93;95581.06;5071899;28;20222;-84
2021/10/25 09:55:18;;;;;;;17.15;6.82;;;10.80;68.50;;;10.79;53.00;95585.25;5071313;28;20227;-82
2021/10/25 10:00:35;;;;;;;11.25;4.32;;;10.90;68.40;;;10.92;52.51;95581.22;5087316;28;20291;-83
2021/10/25 10:03:03;;;;;;;8.18;4.80;;;11.00;68.20;;;10.97;52.21;95581.50;5088516;28;20453;-84
2021/10/25 10:05:59;;;;;;;8.27;4.32;;;11.00;68.00;;;11.04;52.33;95572.72;5086070;28;20317;-84
2021/10/25 10:08:33;;;;;;;7.63;4.50;;;11.10;68.00;;;11.13;52.22;95570.03;5077422;28;20194;-83
2021/10/25 10:11:06;;;;;;;8.57;5.40;;;11.20;68.00;;;11.22;52.13;95566.34;5109027;28;20226;-83
2021/10/25 10:13:34;;;;;;;10.95;8.85;;;11.20;67.80;;;11.31;51.93;95559.19;5092026;28;20205;-83
2021/10/25 10:16:15;;;;;;;10.98;5.57;;;11.30;67.80;;;11.42;51.88;95560.56;5078721;28;20284;-83
2021/10/25 10:18:56;;;;;;;7.78;5.07;;;11.40;67.70;;;11.49;52.01;95569.34;5062538;28;20289;-84
2021/10/25 10:21:32;;;;;;;5.78;4.18;;;11.40;67.40;;;11.59;51.36;95566.44;5062733;28;20706;-83
2021/10/25 10:24:10;;;;;;;4.70;4.20;;;11.60;67.50;;;11.64;51.18;95554.38;5059250;28;20270;-83
2021/10/25 10:26:40;;;;;;;5.45;3.80;;;11.60;67.40;;;11.73;51.01;95556.91;5058173;28;20235;-84
2021/10/25 10:29:16;;;;;;;10.40;5.25;;;11.70;67.10;;;11.83;50.62;95562.72;5070644;28;20205;-84
2021/10/25 10:32:11;;;;;;;6.38;4.10;;;11.80;66.80;;;11.92;50.63;95558.19;5069913;28;20213;-84
2021/10/25 10:35:07;;;;;;;7.20;3.97;;;11.90;66.80;;;12.01;50.70;95546.56;5080021;28;20236;-84
2021/10/25 10:38:01;;;;;;;6.72;3.70;;;12.00;66.80;;;12.15;50.61;95553.59;5079627;28;20229;-83
2021/10/25 10:40:43;;;;;;;7.10;4.22;;;12.10;66.80;;;12.28;50.17;95546.84;5062255;28;20201;-84
2021/10/25 10:44:04;;;;;;;6.65;4.13;;;12.20;67.30;;;12.42;50.13;95545.19;5094676;28;20288;-84
2021/10/25 10:46:46;;;;;;;7.63;4.70;;;12.30;66.50;;;12.57;50.01;95540.69;5077495;28;20670;-83
2021/10/25 10:49:24;;;;;;;52.22;42.78;;;12.50;66.40;;;12.68;49.26;95541.97;5077600;28;20208;-83
2021/10/25 10:55:15;;;;;;;18.90;16.70;;;12.60;66.00;;;12.94;49.72;95530.84;5092519;28;20239;-84
2021/10/25 10:58:39;;;;;;;9.40;7.53;;;12.80;66.20;;;13.04;48.63;95524.44;5081810;28;20652;-83
2021/10/25 11:00:48;;;;;;;6.78;4.60;;;12.80;66.00;;;13.19;49.14;95519.88;5082168;28;20243;-86
2021/10/25 11:03:23;;;;;;;6.70;4.40;;;13.00;65.60;;;13.31;48.57;95522.78;5094491;28;20182;-84
2021/10/25 11:05:54;;;;;;;8.93;4.80;;;13.10;65.70;;;13.42;48.58;95511.72;5075414;28;20550;-83
2021/10/25 11:08:24;;;;;;;4.65;4.00;;;13.20;65.70;;;13.56;48.81;95509.16;5075986;28;20206;-83
2021/10/25 11:11:06;;;;;;;7.15;4.40;;;13.40;65.90;;;13.74;48.82;95508.63;5077112;28;20205;-84
2021/10/25 11:13:50;;;;;;;8.18;4.63;;;13.50;65.70;;;13.91;48.64;95509.13;5073366;28;20198;-84
2021/10/25 11:16:41;;;;;;;4.97;3.78;;;13.60;65.90;;;14.05;48.30;95496.78;5057630;28;20221;-84
2021/10/25 11:19:09;;;;;;;16.58;10.90;;;13.80;65.50;;;14.25;48.36;95495.00;5059764;28;20202;-84
2021/10/25 11:21:47;;;;;;;21.75;14.73;;;14.00;65.90;;;14.45;48.35;95488.91;5057442;28;20629;-84
2021/10/25 11:24:17;;;;;;;14.25;9.63;;;14.10;65.70;;;14.64;48.16;95487.31;5056595;28;20248;-85
2021/10/25 11:26:47;;;;;;;10.10;6.10;;;14.40;65.60;;;14.79;48.13;95484.50;5065375;28;20232;-84
2021/10/25 11:29:24;;;;;;;9.63;5.57;;;14.50;65.50;;;15.00;47.75;95490.56;5083926;28;20237;-84
2021/10/25 11:32:00;;;;;;;8.35;4.50;;;14.70;65.20;;;15.21;47.63;95486.91;5059277;28;20259;-84
2021/10/25 11:34:33;;;;;;;8.50;4.65;;;14.90;64.80;;;15.41;47.59;95489.47;5093471;28;20243;-84
2021/10/25 11:37:19;;;;;;;8.82;4.65;;;15.10;65.20;;;15.66;47.69;95479.03;5079531;28;20222;-84
2021/10/25 11:42:21;;;;;;;10.20;6.10;;;15.50;65.10;;;16.18;46.50;95472.91;5069531;28;20223;-85
2021/10/25 11:45:01;;;;;;;13.38;7.70;;;15.70;64.90;;;16.40;46.71;95475.22;5075831;28;20281;-85
2021/10/25 11:47:32;;;;;;;10.70;4.82;;;15.90;64.40;;;16.68;46.11;95474.00;5055843;28;20261;-85
2021/10/25 11:50:08;;;;;;;7.60;4.13;;;16.20;64.50;;;16.86;45.74;95463.44;5078262;28;20202;-84
2021/10/25 11:52:49;;;;;;;5.57;3.50;;;16.40;63.90;;;17.04;45.74;95460.06;5069406;28;20221;-84
2021/10/25 11:55:25;;;;;;;7.13;3.65;;;16.60;63.50;;;17.19;45.20;95458.91;5076013;28;20205;-82
2021/10/25 11:57:56;;;;;;;12.77;4.10;;;16.80;63.30;;;17.35;45.14;95460.16;5073046;28;20214;-86
2021/10/25 12:00:30;;;;;;;7.25;3.53;;;17.00;63.10;;;17.43;44.44;95451.88;5073836;28;20592;-85
2021/10/25 12:03:27;;;;;;;5.93;4.10;;;17.10;62.90;;;17.44;44.37;95450.84;5087907;28;20206;-84
2021/10/25 12:05:57;;;;;;;12.07;4.63;;;17.30;62.60;;;17.35;44.20;95441.59;5076064;28;20202;-84
2021/10/25 12:08:24;;;;;;;8.82;3.97;;;17.30;62.10;;;17.26;43.38;95443.72;5076990;28;20206;-84
2021/10/25 12:10:56;;;;;;;7.57;3.70;;;17.30;61.40;;;17.21;43.66;95436.44;5076728;28;20206;-84
2021/10/25 12:13:25;;;;;;;5.15;3.38;;;17.40;61.50;;;17.24;43.64;95445.78;5055888;28;20209;-84
2021/10/25 12:15:58;;;;;;;4.95;3.38;;;17.30;61.40;;;17.25;43.59;95442.91;5072905;28;20190;-84
2021/10/25 12:18:26;;;;;;;6.72;3.80;;;17.30;61.30;;;17.29;43.06;95430.03;5068558;28;20627;-85
2021/10/25 12:20:54;;;;;;;5.75;3.70;;;17.30;61.30;;;17.22;42.63;95427.44;5064873;28;20605;-84
2021/10/25 12:23:28;;;;;;;5.13;3.38;;;17.40;61.40;;;17.14;42.45;95430.38;5085013;28;20204;-84
2021/10/25 12:26:05;;;;;;;5.63;3.13;;;17.30;60.80;;;17.02;42.90;95422.34;5061670;28;20201;-84
2021/10/25 12:28:36;;;;;;;57.90;36.00;;;17.30;60.20;;;16.93;42.93;95424.47;5075942;28;20278;-84
2021/10/25 12:31:18;;;;;;;35.35;17.40;;;17.20;60.40;;;16.78;42.33;95418.69;5086035;28;20223;-85
2021/10/25 12:33:47;;;;;;;24.27;19.52;;;17.10;60.20;;;16.65;42.15;95428.38;5085825;28;20188;-84